Terminal Aerodrome Forecast
Issued by NWS Mt. Holly, NJ

Home | Current Version | Previous Version | Text Only | Print | Product List | Glossary On
Versions: 1 2 3 4 5 6 7 8 9 10 11 12 13 14 15 16 17 18 19 20 21 22 23 24 25 26 27
000
FTAK31 PANC 211120
TAFABE
TAF
PABE 211120Z 2112/2212 36015KT P6SM FEW015 BKN140
     FM220000 33011KT P6SM SCT050 SCT150=

USA.gov is the U.S. government's official web portal to all federal, state and local government web resources and services.